Union Hill, NY (14563)

3:27 PM EDT on April 18, 2015 (GMT -0400)
Village of Webster - WebsterWeather.com | | Change Station
CLOSE
Current Station
Personal Weather Station
Location: Webster, NY
Elevation: 470 ft
Nearby Weather Stations

Elev 470 ft 43.20 °N, 77.43 °W | Updated 1 second ago

Clear
Clear
63.4 °F
Feels Like 63.4 °F
N
7.5
Wind Variable Wind from West
Gusts 22.5 mph

Today
High -- | Low -- °F
--% Chance of Precip.
Yesterday
High -- | Low -- °F
Precip. -- in
6:22 AM 7:55 PM
New Moon, 0% visible
Pressure 30.03 in
Visibility 10.0 miles
Clouds Few 5000 ft
Dew Point 39 °F
Humidity 40%
Rainfall 0.00 in
Snow Depth Not available.
UV 7 out of 12
Pollen 11.30 out of 12
Air Quality Not available.
Flu Activity Widespread
METAR KROC 181854Z 30018G28KT 10SM FEW050 19/M02 A3002 RMK AO2 PK WND 30028/1846 SLP169 T01891022

More Conditions Fewer Conditions

Pressure 30.03 in
Visibility 10.0 miles
Clouds Few 5000 ft
Dew Point 39 °F
Humidity 40%
Rainfall 0.00 in
Snow Depth Not available.
UV 7 out of 12
Pollen 11.30 out of 12
Air Quality Not available.
Flu Activity Widespread
METAR KROC 181854Z 30018G28KT 10SM FEW050 19/M02 A3002 RMK AO2 PK WND 30028/1846 SLP169 T01891022

More Conditions Fewer Conditions

10-Day Weather Forecast

Almanac

Astronomy

Apr. 18, 2015 Rise Set
Actual Time
Civil Twilight
Nautical Twilight
Astronomical Twilight
Moon
Length of Visible Light
Length of Day
Tomorrow will be .
, % of the Moon is Illuminated

Today's Extremes

State Highs State Lows

Community

WunderPhotos

Upload Photos

1,814,501 photos uploaded!

WunderBlogs® & News

Nearby

Air Quality

  Air Quality AQ Index Pollutant
Not available.

Snow Depth

Station Depth Elevation

Earthquake Activity

City Distance Mag. Time & Date
Minimum magnitude displayed is 2.5.

Coastal Water Temperatures

Place Temperature

Stations

Nearby Weather Stations

Station Location Temp. Windchill Dew Point Humidity Wind Precip. Elev Updated Type